createdAt,value
2018-02-22T14:01:54.608Z,11.50
2018-02-22T14:04:26.545Z,13.90
2018-02-22T15:15:35.356Z,11.67
2018-02-22T15:27:16.710Z,11.60
2018-02-22T15:29:55.213Z,13.27
2018-02-22T15:35:33.834Z,14.95
2018-02-22T15:59:07.669Z,17.02
2018-02-22T16:01:37.204Z,17.83
2018-02-22T16:04:04.179Z,19.95
2018-02-22T16:06:31.169Z,19.30
2018-02-22T16:08:58.014Z,18.80
2018-02-22T16:11:28.200Z,16.80
2018-02-22T16:13:55.081Z,17.50
2018-02-22T16:16:21.853Z,15.75
2018-02-22T16:18:48.540Z,20.55
2018-02-22T16:21:16.135Z,16.42
2018-02-22T16:23:42.888Z,21.60
2018-02-22T16:26:10.834Z,20.05
2018-02-22T16:28:38.896Z,16.70
2018-02-22T16:31:05.592Z,18.25
2018-02-22T16:33:32.337Z,18.48
2018-02-22T16:35:59.188Z,17.87
2018-02-22T16:38:25.889Z,18.35
2018-02-22T16:40:52.597Z,23.55
2018-02-22T16:43:19.555Z,20.17
2018-02-22T16:45:46.267Z,21.58
2018-02-22T16:48:13.322Z,19.50
2018-02-22T16:50:41.182Z,19.20
2018-02-22T16:53:08.145Z,22.60
2018-02-22T16:55:34.994Z,24.63
2018-02-22T16:58:01.954Z,22.35
2018-02-22T17:00:28.637Z,25.77
2018-02-22T17:02:56.130Z,21.40
2018-02-22T17:05:22.958Z,25.67
2018-02-22T17:07:49.880Z,25.27
2018-02-22T17:10:17.062Z,23.10
2018-02-22T17:25:23.922Z,24.70
2018-02-22T17:27:56.730Z,21.58
2018-02-22T17:30:29.788Z,22.35
2018-02-22T17:32:56.816Z,26.00
2018-02-22T17:48:48.545Z,27.50
2018-02-22T17:51:15.501Z,25.20
2018-02-22T17:53:43.148Z,27.50
2018-02-22T17:56:09.863Z,25.88
2018-02-22T17:58:38.988Z,22.13
2018-02-22T18:01:05.744Z,22.70
2018-02-22T18:03:32.454Z,26.85
2018-02-22T18:05:59.117Z,25.58
2018-02-22T18:08:26.090Z,24.55
2018-02-22T18:14:15.212Z,26.50
2018-02-22T18:34:43.882Z,26.62
2018-02-22T18:50:38.865Z,27.35
2018-02-22T18:53:06.482Z,23.85
2018-02-22T18:55:33.900Z,24.67
2018-02-22T18:58:00.529Z,22.73
2018-02-22T19:00:27.132Z,24.05
2018-02-22T19:02:54.956Z,23.90
2018-02-22T19:05:21.620Z,28.33
2018-02-22T19:25:47.302Z,24.65
2018-02-22T19:28:21.028Z,22.37
2018-02-22T19:49:29.525Z,23.75
2018-02-22T20:37:58.231Z,26.80
2018-02-22T21:01:12.621Z,26.50
